»·PEaware :: N45XS KBOI-KPDX

N45XS :: KBOI-KPDX

FLIGHT INFORMATION

Flight Status: Arrived
Operator: Privately registered:
United States
More flights under this callsign
Pilot: Ernest M. (83)
Aircraft: BEECH AIRCRAFT BARON
(BE58)
More flights by this aircraft type
Origin: KBOI Boise Air Terminal/Gowen
United States
Destination: KPDX Portland Intl
United States
More flights between these airports :: More routes between these airports
Route: +BOI3 V500 UBG
File this flight plan on PilotEdge
Remarks:
Altitude:
(Current/Filed)
12,000ft
Speed:
(Current/Filed)
160kts
Departed: 22-Dec-17 06:04 PM
Arrived: 22-Dec-17 09:14 PM
Distance/Time
Traveled:
298nm/3:10
Distance/Time
To Go:
Arrived

Flight Plot

Page will automatically refresh every two minutes.

Flight plan parsing failed; only flown route is shown


Map Options




Map Legend


Flown Route
Filed Route
Departure Airport
Arrival Airport
Navaid (VOR, NDB)
Fix

Horizontal Profiles

Position Reports

Time Latitude Longitude Heading Altitude Ground
Speed
22-Dec-17 17:28 43.570221 -116.229000 272 2834ft 0kts
22-Dec-17 17:29 43.570221 -116.229000 272 2834ft 0kts
22-Dec-17 17:30 43.570221 -116.229000 272 2834ft 0kts
22-Dec-17 17:31 43.570221 -116.229000 272 2834ft 0kts
22-Dec-17 17:32 43.570221 -116.229000 272 2834ft 0kts
22-Dec-17 17:33 43.570221 -116.229000 272 2834ft 0kts
22-Dec-17 17:34 43.570221 -116.229000 272 2834ft 0kts
22-Dec-17 17:35 43.570221 -116.229000 272 2834ft 0kts
22-Dec-17 17:36 43.570221 -116.229000 272 2834ft 0kts
22-Dec-17 17:37 43.570221 -116.229000 272 2834ft 0kts
22-Dec-17 17:38 43.570221 -116.229000 272 2834ft 0kts
22-Dec-17 17:39 43.570221 -116.229000 272 2834ft 0kts
22-Dec-17 17:40 43.570221 -116.229000 272 2834ft 0kts
22-Dec-17 17:41 43.570221 -116.229000 272 2834ft 0kts
22-Dec-17 17:42 43.570221 -116.229000 272 2834ft 0kts
22-Dec-17 17:43 43.570221 -116.229000 272 2834ft 0kts
22-Dec-17 17:44 43.570221 -116.229000 272 2834ft 0kts
22-Dec-17 17:45 43.570221 -116.229000 272 2834ft 0kts
22-Dec-17 17:46 43.570221 -116.229000 272 2834ft 0kts
22-Dec-17 17:47 43.570221 -116.229000 272 2834ft 0kts
22-Dec-17 17:48 43.570221 -116.229000 272 2834ft 0kts
22-Dec-17 17:49 43.570221 -116.229000 272 2834ft 0kts
22-Dec-17 17:50 43.570221 -116.229000 272 2834ft 0kts
22-Dec-17 17:51 43.570221 -116.229000 272 2834ft 0kts
22-Dec-17 17:52 43.570221 -116.229000 272 2834ft 0kts
22-Dec-17 17:53 43.570221 -116.229000 272 2834ft 0kts
22-Dec-17 17:54 43.570221 -116.229000 272 2834ft 0kts
22-Dec-17 17:55 43.570221 -116.229000 272 2834ft 0kts
22-Dec-17 17:56 43.569632 -116.229418 192 2833ft 3kts
22-Dec-17 17:57 43.569495 -116.229463 194 2833ft 0kts
22-Dec-17 17:58 43.569424 -116.230994 292 2830ft 11kts
22-Dec-17 17:59 43.570786 -116.235040 292 2825ft 16kts
22-Dec-17 18:00 43.570971 -116.236200 232 2823ft 0kts
22-Dec-17 18:01 43.570963 -116.236216 234 2823ft 0kts
22-Dec-17 18:02 43.570962 -116.236217 234 2823ft 0kts
22-Dec-17 18:03 43.570960 -116.236221 235 2823ft 0kts
22-Dec-17 18:04 43.570960 -116.236221 235 2823ft 0kts
22-Dec-17 18:05 43.570960 -116.236221 235 2823ft 0kts
22-Dec-17 18:06 43.570960 -116.236221 235 2823ft 0kts
22-Dec-17 18:07 43.570960 -116.236221 235 2823ft 0kts
22-Dec-17 18:08 43.570960 -116.236221 235 2823ft 0kts
22-Dec-17 18:09 43.570528 -116.236494 187 2822ft 11kts
22-Dec-17 18:10 43.560645 -116.209174 119 2997ft 135kts
22-Dec-17 18:11 43.540614 -116.165706 120 4117ft 137kts
22-Dec-17 18:12 43.523341 -116.118485 119 5156ft 141kts
22-Dec-17 18:13 43.508773 -116.069002 102 6041ft 140kts
22-Dec-17 18:14 43.500321 -116.016838 128 6748ft 145kts
22-Dec-17 18:15 43.466244 -116.011148 238 7180ft 136kts
22-Dec-17 18:16 43.473105 -116.053434 299 7897ft 119kts
22-Dec-17 18:17 43.488374 -116.090735 298 8607ft 114kts
22-Dec-17 18:18 43.502533 -116.129605 302 9238ft 114kts
22-Dec-17 18:19 43.513687 -116.161372 298 9816ft 112kts
22-Dec-17 18:20 43.529734 -116.204932 298 10566ft 109kts
22-Dec-17 18:21 43.543246 -116.240955 298 11154ft 107kts
22-Dec-17 18:22 43.562217 -116.271155 311 11698ft 106kts
22-Dec-17 18:23 43.584005 -116.299269 312 12023ft 119kts
22-Dec-17 18:24 43.599694 -116.331207 294 12023ft 131kts
22-Dec-17 18:25 43.618039 -116.385269 294 12014ft 139kts
22-Dec-17 18:26 43.631210 -116.425236 294 12014ft 140kts
22-Dec-17 18:27 43.646961 -116.473412 294 12014ft 140kts
22-Dec-17 18:28 43.662489 -116.521075 294 12013ft 140kts
22-Dec-17 18:29 43.678114 -116.569140 294 12013ft 140kts
22-Dec-17 18:30 43.693748 -116.617322 294 12013ft 140kts
22-Dec-17 18:31 43.709131 -116.664867 293 12015ft 137kts
22-Dec-17 18:32 43.723718 -116.710011 293 12017ft 133kts
22-Dec-17 18:33 43.735404 -116.746212 293 12019ft 132kts
22-Dec-17 18:34 43.749526 -116.790010 293 12020ft 134kts
22-Dec-17 18:35 43.764503 -116.836360 293 12021ft 136kts
22-Dec-17 18:36 43.778839 -116.880502 293 12022ft 137kts
22-Dec-17 18:37 43.793858 -116.926892 294 12066ft 136kts
22-Dec-17 18:38 43.807712 -116.969724 294 12070ft 137kts
22-Dec-17 18:39 43.822097 -117.014281 294 12070ft 136kts
22-Dec-17 18:40 43.836767 -117.059798 294 12070ft 134kts
22-Dec-17 18:41 43.851326 -117.105052 294 12069ft 132kts
22-Dec-17 18:42 43.864542 -117.146190 295 12068ft 130kts
22-Dec-17 18:43 43.877562 -117.186778 295 12068ft 130kts
22-Dec-17 18:44 43.891028 -117.228826 295 12068ft 130kts
22-Dec-17 18:45 43.904506 -117.270984 295 12068ft 129kts
22-Dec-17 18:46 43.917443 -117.311514 295 12067ft 129kts
22-Dec-17 18:47 43.930068 -117.351133 295 12067ft 129kts
22-Dec-17 18:48 43.942901 -117.391464 295 12067ft 129kts
22-Dec-17 18:49 43.956870 -117.435431 295 12066ft 129kts
22-Dec-17 18:50 43.971176 -117.480536 295 12066ft 129kts
22-Dec-17 18:51 43.985388 -117.525422 295 12065ft 129kts
22-Dec-17 18:52 43.999472 -117.569978 295 12065ft 129kts
22-Dec-17 18:53 44.013463 -117.614315 295 12065ft 129kts
22-Dec-17 18:54 44.025488 -117.652487 294 12064ft 129kts
22-Dec-17 18:55 44.038905 -117.695127 294 12064ft 130kts
22-Dec-17 18:56 44.053067 -117.740211 294 12056ft 131kts
22-Dec-17 18:57 44.067552 -117.786413 294 12045ft 131kts
22-Dec-17 18:58 44.081905 -117.832280 294 12031ft 131kts
22-Dec-17 18:59 44.096417 -117.878743 294 12016ft 131kts
22-Dec-17 19:00 44.110429 -117.923683 294 12010ft 132kts
22-Dec-17 19:01 44.123950 -117.967125 294 12001ft 132kts
22-Dec-17 19:02 44.138495 -118.013954 294 11995ft 132kts
22-Dec-17 19:03 44.152911 -118.060455 294 11991ft 132kts
22-Dec-17 19:04 44.167404 -118.107269 294 11993ft 132kts
22-Dec-17 19:05 44.181743 -118.153669 294 12000ft 131kts
22-Dec-17 19:06 44.196029 -118.199971 294 12007ft 131kts
22-Dec-17 19:07 44.210041 -118.245445 294 12013ft 131kts
22-Dec-17 19:08 44.224100 -118.291174 294 12020ft 131kts
22-Dec-17 19:09 44.238166 -118.337013 294 12025ft 131kts
22-Dec-17 19:10 44.252416 -118.383542 294 12024ft 131kts
22-Dec-17 19:11 44.266613 -118.429982 294 12024ft 131kts
22-Dec-17 19:12 44.280775 -118.476395 294 12024ft 131kts
22-Dec-17 19:13 44.294955 -118.522952 294 12023ft 131kts
22-Dec-17 19:14 44.308634 -118.567943 294 12023ft 131kts
22-Dec-17 19:15 44.322630 -118.614056 294 12023ft 131kts
22-Dec-17 19:16 44.334807 -118.654254 294 12026ft 131kts
22-Dec-17 19:17 44.347724 -118.696940 293 12028ft 134kts
22-Dec-17 19:18 44.361956 -118.744045 293 12002ft 139kts
22-Dec-17 19:19 44.375977 -118.790575 293 12000ft 139kts
22-Dec-17 19:20 44.390016 -118.837241 293 12000ft 139kts
22-Dec-17 19:21 44.403474 -118.882053 293 11999ft 138kts
22-Dec-17 19:22 44.417306 -118.928192 293 11999ft 137kts
22-Dec-17 19:23 44.430869 -118.973518 293 11999ft 136kts
22-Dec-17 19:24 44.444610 -119.019520 293 11998ft 135kts
22-Dec-17 19:25 44.457955 -119.064278 293 11998ft 135kts
22-Dec-17 19:26 44.470769 -119.107328 293 11998ft 134kts
22-Dec-17 19:27 44.483768 -119.151084 293 11997ft 134kts
22-Dec-17 19:28 44.497472 -119.197285 293 11997ft 134kts
22-Dec-17 19:29 44.511171 -119.243565 293 11997ft 134kts
22-Dec-17 19:30 44.524492 -119.288622 293 11996ft 134kts
22-Dec-17 19:31 44.537796 -119.333716 293 11996ft 134kts
22-Dec-17 19:32 44.550701 -119.377534 293 11996ft 134kts
22-Dec-17 19:33 44.563964 -119.422651 293 11995ft 134kts
22-Dec-17 19:34 44.577228 -119.467854 293 11995ft 134kts
22-Dec-17 19:35 44.590271 -119.512405 293 11995ft 133kts
22-Dec-17 19:36 44.603170 -119.556511 293 11994ft 133kts
22-Dec-17 19:37 44.616230 -119.601244 293 11994ft 133kts
22-Dec-17 19:38 44.629339 -119.646230 293 11994ft 133kts
22-Dec-17 19:39 44.642233 -119.690576 293 12000ft 134kts
22-Dec-17 19:40 44.654771 -119.739357 290 11999ft 135kts
22-Dec-17 19:41 44.666205 -119.788448 290 11999ft 135kts
22-Dec-17 19:42 44.677150 -119.835632 290 11999ft 135kts
22-Dec-17 19:43 44.688411 -119.884307 290 11998ft 135kts
22-Dec-17 19:44 44.699332 -119.931648 290 11998ft 135kts
22-Dec-17 19:45 44.709897 -119.977525 290 11997ft 135kts
22-Dec-17 19:46 44.720267 -120.022645 290 11998ft 135kts
22-Dec-17 19:47 44.730985 -120.069372 290 12001ft 135kts
22-Dec-17 19:48 44.741393 -120.114850 290 12005ft 135kts
22-Dec-17 19:49 44.752536 -120.163644 290 12008ft 134kts
22-Dec-17 19:50 44.763527 -120.211836 290 12011ft 134kts
22-Dec-17 19:51 44.774650 -120.260760 290 12013ft 133kts
22-Dec-17 19:52 44.785736 -120.309681 290 12012ft 130kts
22-Dec-17 19:53 44.796383 -120.356769 290 12011ft 125kts
22-Dec-17 19:54 44.806560 -120.401885 290 12014ft 120kts
22-Dec-17 19:55 44.816231 -120.444838 290 12021ft 116kts
22-Dec-17 19:56 44.825698 -120.486900 290 12028ft 116kts
22-Dec-17 19:57 44.834956 -120.528097 290 12034ft 119kts
22-Dec-17 19:58 44.844647 -120.571304 290 12040ft 121kts
22-Dec-17 19:59 44.854468 -120.615196 290 12045ft 124kts
22-Dec-17 20:00 44.864097 -120.658358 289 12056ft 127kts
22-Dec-17 20:01 44.873669 -120.701301 289 12063ft 131kts
22-Dec-17 20:02 44.881454 -120.736312 289 12068ft 133kts
22-Dec-17 20:03 44.889808 -120.773966 289 12072ft 134kts
22-Dec-17 20:04 44.898735 -120.814289 289 12077ft 134kts
22-Dec-17 20:05 44.907656 -120.854665 289 12082ft 134kts
22-Dec-17 20:06 44.916866 -120.896389 289 11988ft 138kts
22-Dec-17 20:07 44.925336 -120.934902 289 11992ft 136kts
22-Dec-17 20:08 44.934169 -120.975118 289 11998ft 135kts
22-Dec-17 20:09 44.943265 -121.016546 289 12003ft 133kts
22-Dec-17 20:10 44.953314 -121.062429 288 12009ft 131kts
22-Dec-17 20:11 44.963333 -121.108296 287 12014ft 129kts
22-Dec-17 20:12 44.973153 -121.153347 287 12014ft 128kts
22-Dec-17 20:13 44.982847 -121.197931 286 12014ft 128kts
22-Dec-17 20:14 44.992747 -121.243633 286 12013ft 128kts
22-Dec-17 20:15 45.002696 -121.289616 286 12013ft 129kts
22-Dec-17 20:16 45.012736 -121.336102 286 12013ft 130kts
22-Dec-17 20:17 45.022694 -121.382254 285 12024ft 131kts
22-Dec-17 20:18 45.032929 -121.429859 285 12031ft 131kts
22-Dec-17 20:19 45.043343 -121.478432 285 12031ft 133kts
22-Dec-17 20:20 45.053737 -121.527003 285 12031ft 134kts
22-Dec-17 20:21 45.064286 -121.576405 285 12030ft 135kts
22-Dec-17 20:22 45.074959 -121.626512 285 12030ft 137kts
22-Dec-17 20:23 45.084298 -121.670463 284 12036ft 139kts
22-Dec-17 20:24 45.093439 -121.713532 284 12033ft 141kts
22-Dec-17 20:25 45.103272 -121.759987 284 12028ft 143kts
22-Dec-17 20:26 45.111861 -121.800667 284 12023ft 144kts
22-Dec-17 20:27 45.122601 -121.851635 284 12017ft 145kts
22-Dec-17 20:28 45.133222 -121.902159 284 12011ft 146kts
22-Dec-17 20:29 45.143751 -121.952365 284 12008ft 146kts
22-Dec-17 20:30 45.158505 -122.000110 305 12008ft 150kts
22-Dec-17 20:31 45.184524 -122.041571 306 12007ft 150kts
22-Dec-17 20:32 45.210459 -122.082678 306 12007ft 150kts
22-Dec-17 20:33 45.236227 -122.123514 306 12007ft 150kts
22-Dec-17 20:34 45.261836 -122.164090 306 12007ft 150kts
22-Dec-17 20:35 45.287498 -122.204739 306 12006ft 150kts
22-Dec-17 20:36 45.307759 -122.239480 301 11998ft 149kts
22-Dec-17 20:37 45.335141 -122.294447 302 10361ft 184kts
22-Dec-17 20:38 45.352596 -122.337322 301 8410ft 163kts
22-Dec-17 20:39 45.368668 -122.383274 301 7317ft 148kts
22-Dec-17 20:40 45.390151 -122.442579 301 6567ft 190kts
22-Dec-17 20:41 45.407205 -122.486760 301 5816ft 210kts
22-Dec-17 20:42 45.434513 -122.545992 301 5041ft 213kts
22-Dec-17 20:43 45.464108 -122.612836 302 4308ft 210kts
22-Dec-17 20:44 45.489593 -122.677422 301 4014ft 191kts
22-Dec-17 20:45 45.514073 -122.739398 301 4015ft 184kts
22-Dec-17 20:46 45.533040 -122.786824 301 4014ft 182kts
22-Dec-17 20:47 45.555686 -122.842765 301 4013ft 181kts
22-Dec-17 20:48 45.578411 -122.898399 301 4012ft 180kts
22-Dec-17 20:49 45.601599 -122.954954 303 4011ft 180kts
22-Dec-17 20:50 45.641426 -122.944829 33 3727ft 190kts
22-Dec-17 20:51 45.678998 -122.908419 33 3217ft 186kts
22-Dec-17 20:52 45.717136 -122.868748 61 2917ft 178kts
22-Dec-17 20:53 45.695800 -122.817853 142 2930ft 176kts
22-Dec-17 20:54 45.660845 -122.778559 124 2919ft 175kts
22-Dec-17 20:55 45.644396 -122.723792 116 2896ft 124kts
22-Dec-17 20:56 45.630332 -122.686878 117 2938ft 114kts
22-Dec-17 20:57 45.616191 -122.650795 120 2824ft 117kts
22-Dec-17 20:58 45.603039 -122.615940 119 1768ft 103kts
22-Dec-17 21:00 45.589778 -122.586849 127 1084ft 104kts
22-Dec-17 21:01 45.573468 -122.550598 80 2251ft 112kts
22-Dec-17 21:02 45.594658 -122.535033 323 3450ft 110kts
22-Dec-17 21:03 45.610348 -122.578608 282 4036ft 153kts
22-Dec-17 21:04 45.625294 -122.636769 302 2962ft 133kts
22-Dec-17 21:05 45.642475 -122.672978 314 2996ft 111kts
22-Dec-17 21:06 45.664146 -122.704242 315 2996ft 112kts
22-Dec-17 21:07 45.680500 -122.727788 315 3004ft 121kts
22-Dec-17 21:08 45.705021 -122.762947 315 3000ft 130kts
22-Dec-17 21:09 45.727706 -122.795463 315 3000ft 132kts
22-Dec-17 21:10 45.746698 -122.831693 263 3003ft 134kts
22-Dec-17 21:11 45.720031 -122.864271 213 3003ft 138kts
22-Dec-17 21:12 45.692583 -122.853191 109 2904ft 144kts
22-Dec-17 21:13 45.678269 -122.809833 116 2035ft 122kts
22-Dec-17 21:14 45.664018 -122.773616 115 1574ft 104kts
22-Dec-17 21:15 45.651297 -122.734809 124 2279ft 117kts
22-Dec-17 21:16 45.634425 -122.698393 121 1639ft 100kts
22-Dec-17 21:17 45.622813 -122.664075 114 1115ft 98kts
22-Dec-17 21:18 45.608639 -122.632155 118 535ft 97kts
22-Dec-17 21:19 45.595729 -122.598354 115 77ft 99kts
22-Dec-17 21:20 45.588506 -122.582301 208 17ft 2kts
22-Dec-17 21:21 45.587790 -122.584509 207 17ft 1kts

Navigation Log

Ident Type
Flight plan parsing failed, navigation log unavailable